Time;durP1;ratioP1;P1;durP2;ratioP2;P2;SDS_P1;SDS_P2;PMS_P1;PMS_P2;Temp;Humidity;BMP_temperature;BMP_pressure;BME280_temperature;BME280_humidity;BME280_pressure;Samples;Min_cycle;Max_cycle;Signal;HPM_P1;HPM_P2
2021/08/17 00:01:17;;;;;;;13.88;3.80;;;;;;;24.45;38.71;99618.16;5124266;28;20035;-72
2021/08/17 00:03:42;;;;;;;9.57;4.07;;;;;;;24.41;38.54;99616.22;5124856;28;20186;-73
2021/08/17 00:06:08;;;;;;;6.90;3.83;;;;;;;24.43;38.90;99625.72;5124075;28;20069;-72
2021/08/17 00:08:33;;;;;;;7.50;3.80;;;;;;;24.40;38.78;99626.22;5124407;28;20027;-73
2021/08/17 00:10:59;;;;;;;9.55;3.88;;;;;;;24.32;39.13;99629.41;5123786;28;20077;-73
2021/08/17 00:13:25;;;;;;;13.15;3.70;;;;;;;24.27;39.04;99632.03;5124049;28;20312;-73
2021/08/17 00:15:50;;;;;;;7.35;3.88;;;;;;;24.23;39.30;99619.25;5124050;28;20027;-73
2021/08/17 00:18:16;;;;;;;13.70;4.15;;;;;;;24.17;39.14;99626.50;5123800;28;20217;-73
2021/08/17 00:20:43;;;;;;;7.57;4.10;;;;;;;24.13;39.33;99619.97;5124263;28;20031;-72
2021/08/17 00:23:09;;;;;;;8.82;3.72;;;;;;;24.19;38.97;99622.47;5123919;28;20048;-72
2021/08/17 00:25:35;;;;;;;7.72;4.07;;;;;;;24.07;39.28;99621.78;5124098;28;20337;-73
2021/08/17 00:28:01;;;;;;;7.43;3.97;;;;;;;24.00;39.42;99614.94;5124006;28;20087;-73
2021/08/17 00:30:27;;;;;;;10.20;3.70;;;;;;;24.07;39.62;99610.16;5123786;28;20325;-73
2021/08/17 00:32:54;;;;;;;9.52;4.05;;;;;;;24.12;39.53;99618.31;5105475;28;20027;-72
2021/08/17 00:35:20;;;;;;;6.50;4.15;;;;;;;24.15;39.66;99612.41;5123847;28;20035;-73
2021/08/17 00:37:46;;;;;;;8.70;3.97;;;;;;;24.12;39.43;99615.63;5123666;28;20031;-73
2021/08/17 00:40:11;;;;;;;5.95;4.10;;;;;;;24.14;39.75;99618.88;5109017;28;20091;-73
2021/08/17 00:42:44;;;;;;;8.73;4.07;;;;;;;24.24;40.23;99627.13;5084537;28;20040;-73
2021/08/17 00:45:12;;;;;;;9.02;4.00;;;;;;;24.17;40.26;99618.38;5093008;28;20055;-73
2021/08/17 00:47:38;;;;;;;6.03;3.88;;;;;;;24.26;40.15;99618.75;5087898;28;20121;-72
2021/08/17 00:50:04;;;;;;;11.38;3.70;;;;;;;24.32;40.02;99623.16;5088803;28;20047;-72
2021/08/17 00:52:29;;;;;;;14.18;4.40;;;;;;;24.19;40.27;99627.06;5091721;28;20255;-72
2021/08/17 00:54:56;;;;;;;7.00;3.50;;;;;;;24.08;40.76;99630.72;5091661;28;20043;-72
2021/08/17 00:57:21;;;;;;;5.40;3.63;;;;;;;24.12;40.72;99629.97;5084956;28;20232;-73
2021/08/17 00:59:46;;;;;;;8.63;3.65;;;;;;;24.09;40.92;99629.66;5086237;28;20020;-73
2021/08/17 01:02:12;;;;;;;6.30;3.38;;;;;;;24.13;40.54;99628.06;5081572;28;20230;-72
2021/08/17 01:04:41;;;;;;;12.48;4.10;;;;;;;24.10;40.47;99623.97;5092785;28;20031;-73
2021/08/17 01:07:10;;;;;;;8.30;4.38;;;;;;;24.04;41.28;99629.59;5085044;28;20110;-73
2021/08/17 01:09:36;;;;;;;7.03;3.40;;;;;;;23.97;41.95;99627.06;5119090;28;20205;-72
2021/08/17 01:12:03;;;;;;;6.85;3.95;;;;;;;24.00;42.17;99623.06;5122644;28;20043;-73
2021/08/17 01:14:29;;;;;;;6.90;3.90;;;;;;;24.09;40.78;99619.66;5122679;28;20357;-73
2021/08/17 01:16:55;;;;;;;7.70;3.65;;;;;;;23.96;41.25;99619.22;5122684;28;20024;-73
2021/08/17 01:19:22;;;;;;;5.75;3.72;;;;;;;23.93;41.19;99623.25;5122758;28;20153;-73
2021/08/17 01:21:49;;;;;;;8.90;3.85;;;;;;;23.80;41.75;99621.69;5122804;28;20035;-73
2021/08/17 01:24:18;;;;;;;6.63;3.90;;;;;;;23.78;41.66;99621.13;5122907;28;20042;-73
2021/08/17 01:26:44;;;;;;;10.07;4.25;;;;;;;23.70;42.07;99618.88;5122792;28;20378;-73
2021/08/17 01:29:11;;;;;;;9.38;4.07;;;;;;;23.65;42.23;99616.09;5094276;28;20028;-73
2021/08/17 01:31:38;;;;;;;8.43;3.70;;;;;;;23.54;42.38;99612.44;5122602;28;20055;-72
2021/08/17 01:34:04;;;;;;;4.00;3.20;;;;;;;23.47;42.76;99619.06;5122718;28;20031;-73
2021/08/17 01:36:30;;;;;;;7.65;3.63;;;;;;;23.44;42.70;99625.78;5122305;28;20087;-73
2021/08/17 01:38:55;;;;;;;7.45;3.80;;;;;;;23.39;42.78;99623.00;5122515;28;20046;-73
2021/08/17 01:41:21;;;;;;;7.50;3.67;;;;;;;23.32;43.23;99622.38;5122151;28;20217;-72
2021/08/17 01:43:47;;;;;;;9.52;4.07;;;;;;;23.24;44.14;99620.09;5122305;28;20335;-72
2021/08/17 01:46:13;;;;;;;8.52;4.38;;;;;;;23.17;44.65;99619.44;5122354;28;20032;-72
2021/08/17 01:48:39;;;;;;;7.47;3.70;;;;;;;23.30;43.50;99620.97;5122468;28;21827;-72
2021/08/17 01:51:05;;;;;;;6.95;3.80;;;;;;;23.23;43.46;99604.94;5122052;28;20063;-72
2021/08/17 01:53:31;;;;;;;10.32;3.72;;;;;;;23.24;43.63;99617.38;5122309;28;20062;-72
2021/08/17 01:56:04;;;;;;;8.35;4.05;;;;;;;23.19;44.21;99623.53;5109656;28;20223;-72
2021/08/17 01:58:30;;;;;;;8.85;4.25;;;;;;;23.15;44.87;99613.47;5091990;28;20345;-72
2021/08/17 02:00:55;;;;;;;11.10;4.25;;;;;;;23.11;45.24;99607.75;5087667;28;20040;-72
2021/08/17 02:03:20;;;;;;;9.00;3.90;;;;;;;23.18;45.42;99608.41;5094268;28;20024;-72
2021/08/17 02:05:46;;;;;;;5.07;3.53;;;;;;;23.29;44.48;99617.47;5089526;28;20040;-73
2021/08/17 02:08:11;;;;;;;7.70;3.78;;;;;;;23.19;44.37;99607.31;5083615;28;20028;-72
2021/08/17 02:10:37;;;;;;;5.70;3.35;;;;;;;23.14;44.39;99604.56;5092939;28;20367;-72
2021/08/17 02:13:05;;;;;;;7.55;3.50;;;;;;;23.03;43.86;99602.75;5092570;28;20073;-72
2021/08/17 02:15:31;;;;;;;9.07;3.92;;;;;;;22.99;44.42;99600.81;5082125;28;20033;-73
2021/08/17 02:17:56;;;;;;;5.15;3.67;;;;;;;22.86;45.20;99600.03;5083656;28;20059;-73
2021/08/17 02:20:22;;;;;;;10.10;3.88;;;;;;;22.77;45.24;99597.97;5099248;28;20256;-73
2021/08/17 02:22:47;;;;;;;7.30;4.07;;;;;;;22.75;45.84;99602.78;5100284;28;20040;-72
2021/08/17 02:25:13;;;;;;;7.00;3.83;;;;;;;22.77;45.06;99604.19;5076374;28;20044;-72
2021/08/17 02:27:39;;;;;;;6.10;3.75;;;;;;;22.74;45.32;99601.16;5083055;28;20071;-72
2021/08/17 02:30:05;;;;;;;8.15;4.03;;;;;;;22.73;45.72;99604.91;5086490;28;20020;-72
2021/08/17 02:32:32;;;;;;;6.82;4.10;;;;;;;22.76;45.72;99602.53;5084117;28;20043;-73
2021/08/17 02:34:58;;;;;;;8.50;4.20;;;;;;;22.77;44.93;99606.06;5083571;28;20032;-72
2021/08/17 02:37:24;;;;;;;8.45;4.18;;;;;;;22.67;45.28;99609.41;5077688;28;20032;-72
2021/08/17 02:39:49;;;;;;;6.50;4.40;;;;;;;22.60;45.79;99601.47;5092042;28;20036;-72
2021/08/17 02:42:15;;;;;;;15.43;4.38;;;;;;;22.67;45.62;99601.31;5069384;28;20394;-72
2021/08/17 02:44:41;;;;;;;7.97;4.18;;;;;;;22.65;45.53;99605.31;5095996;28;20082;-72
2021/08/17 02:47:06;;;;;;;8.27;4.28;;;;;;;22.56;45.84;99599.50;5078266;28;20330;-73
2021/08/17 02:49:33;;;;;;;14.85;4.40;;;;;;;22.55;45.91;99603.25;5087034;28;20077;-72
2021/08/17 02:52:05;;;;;;;9.02;4.15;;;;;;;22.45;46.15;99601.22;5093573;28;20036;-73
2021/08/17 02:54:36;;;;;;;7.63;4.25;;;;;;;22.36;46.04;99601.84;5096369;28;20020;-72
2021/08/17 02:57:03;;;;;;;9.70;4.47;;;;;;;22.14;46.80;99588.22;5087465;28;20063;-72
2021/08/17 02:59:28;;;;;;;8.18;4.38;;;;;;;22.10;46.85;99601.38;5097422;28;20024;-73
2021/08/17 03:01:54;;;;;;;8.50;4.70;;;;;;;22.11;47.43;99594.09;5090847;28;20085;-72
2021/08/17 03:04:19;;;;;;;11.38;4.45;;;;;;;22.10;47.36;99598.69;5075100;28;20261;-73
2021/08/17 03:06:44;;;;;;;18.38;5.05;;;;;;;22.14;47.31;99607.91;5082664;28;20025;-73
2021/08/17 03:09:10;;;;;;;12.07;4.50;;;;;;;22.17;47.36;99615.53;5097414;28;20313;-72
2021/08/17 03:11:35;;;;;;;12.45;3.97;;;;;;;22.05;47.28;99612.06;5078460;28;20021;-73
2021/08/17 03:14:01;;;;;;;15.80;4.45;;;;;;;22.05;47.26;99614.75;5090898;28;20020;-73
2021/08/17 03:16:26;;;;;;;18.38;5.40;;;;;;;22.02;47.23;99611.69;5093349;28;20036;-72
2021/08/17 03:18:52;;;;;;;19.17;5.30;;;;;;;21.99;47.76;99621.88;5089221;28;20016;-72
2021/08/17 03:21:18;;;;;;;20.30;5.50;;;;;;;22.02;47.44;99619.78;5089324;28;20337;-73
2021/08/17 03:23:43;;;;;;;25.73;4.50;;;;;;;21.96;47.27;99626.94;5100175;28;20137;-73
2021/08/17 03:26:10;;;;;;;11.55;5.20;;;;;;;21.93;47.80;99627.41;5097300;28;20242;-73
2021/08/17 03:28:36;;;;;;;19.33;4.85;;;;;;;21.92;48.07;99623.09;5092872;28;20074;-73
2021/08/17 03:31:01;;;;;;;25.35;5.30;;;;;;;21.89;47.83;99624.38;5096824;28;20318;-72
2021/08/17 03:33:27;;;;;;;29.13;5.57;;;;;;;21.89;47.77;99620.88;5089871;28;20034;-72
2021/08/17 03:35:53;;;;;;;17.85;5.55;;;;;;;21.72;48.95;99625.34;5087482;28;20055;-73
2021/08/17 03:38:19;;;;;;;17.50;5.32;;;;;;;21.84;48.35;99628.81;5121992;28;20034;-72
2021/08/17 03:40:44;;;;;;;20.63;5.10;;;;;;;21.83;48.71;99627.19;5123253;28;20042;-72
2021/08/17 03:43:10;;;;;;;25.58;7.15;;;;;;;21.83;48.07;99629.88;5095087;28;20330;-72
2021/08/17 03:45:36;;;;;;;22.33;5.95;;;;;;;21.78;47.79;99625.19;5088758;28;20248;-72
2021/08/17 03:48:02;;;;;;;27.85;5.28;;;;;;;21.73;48.63;99632.34;5095024;28;20454;-73
2021/08/17 03:50:27;;;;;;;25.67;5.97;;;;;;;21.79;48.70;99626.84;5095378;28;20041;-73
2021/08/17 03:52:53;;;;;;;23.33;5.45;;;;;;;21.84;48.71;99635.03;5067058;28;20020;-73
2021/08/17 03:55:20;;;;;;;44.88;6.97;;;;;;;21.71;49.24;99643.38;5089074;28;20028;-72
2021/08/17 03:57:46;;;;;;;24.40;6.30;;;;;;;21.56;49.82;99634.97;5100334;28;20036;-72
2021/08/17 04:00:14;;;;;;;29.63;6.38;;;;;;;21.35;50.65;99649.84;5094024;28;20098;-73
2021/08/17 04:02:41;;;;;;;21.55;5.93;;;;;;;21.31;50.88;99644.13;5098038;28;20052;-72
2021/08/17 04:05:07;;;;;;;16.13;6.35;;;;;;;21.01;51.61;99633.41;5091840;28;20024;-72
2021/08/17 04:07:32;;;;;;;15.60;5.68;;;;;;;21.08;51.69;99636.00;5256571;22;20079;-75
2021/08/17 04:09:58;;;;;;;18.70;6.22;;;;;;;21.23;51.84;99631.00;5064730;28;20025;-75
2021/08/17 04:12:24;;;;;;;13.90;6.82;;;;;;;21.35;51.61;99623.75;5081897;28;20024;-74
2021/08/17 04:14:49;;;;;;;18.52;5.90;;;;;;;21.41;51.67;99631.94;5104236;28;20028;-74
2021/08/17 04:17:14;;;;;;;21.60;5.93;;;;;;;21.67;51.15;99642.22;5103747;28;20102;-75
2021/08/17 04:19:40;;;;;;;16.23;6.13;;;;;;;21.74;51.08;99637.50;5085645;28;20020;-74
2021/08/17 04:22:06;;;;;;;15.65;5.53;;;;;;;21.94;50.84;99634.44;5103703;28;20336;-75
2021/08/17 04:24:32;;;;;;;21.10;6.03;;;;;;;22.11;50.53;99642.63;5103656;28;20229;-75
2021/08/17 04:26:57;;;;;;;32.08;5.72;;;;;;;22.24;50.24;99635.09;5103629;28;20036;-74
2021/08/17 04:29:23;;;;;;;21.95;5.55;;;;;;;22.16;50.17;99637.34;5085523;28;20027;-78
2021/08/17 04:31:48;;;;;;;23.58;5.68;;;;;;;22.29;50.16;99637.06;5103435;28;20046;-78
2021/08/17 04:34:14;;;;;;;19.58;5.85;;;;;;;22.44;49.65;99623.03;5085677;28;20058;-72
2021/08/17 04:36:39;;;;;;;25.17;6.57;;;;;;;22.69;49.21;99639.66;5103011;28;20051;-72
2021/08/17 04:39:05;;;;;;;16.13;6.43;;;;;;;22.46;49.56;99616.34;5085380;28;20035;-75
2021/08/17 04:41:30;;;;;;;19.73;5.47;;;;;;;22.40;49.71;99614.59;5103234;28;20072;-75
2021/08/17 04:43:56;;;;;;;25.45;5.78;;;;;;;22.52;49.89;99636.94;5103456;28;20028;-75
2021/08/17 04:46:21;;;;;;;25.67;6.35;;;;;;;22.62;49.76;99631.72;5103290;28;20256;-75
2021/08/17 04:48:49;;;;;;;20.88;6.20;;;;;;;22.44;50.05;99636.53;5084893;28;20073;-74
2021/08/17 04:51:14;;;;;;;31.88;7.18;;;;;;;22.32;50.13;99609.59;5085034;28;20015;-74
2021/08/17 04:53:40;;;;;;;37.33;7.28;;;;;;;22.63;49.99;99637.94;5103452;28;20051;-74
2021/08/17 04:56:06;;;;;;;30.98;6.43;;;;;;;22.92;49.49;99636.88;5102146;28;20051;-75
2021/08/17 04:58:32;;;;;;;22.48;7.13;;;;;;;23.10;48.74;99643.94;5096509;28;20305;-76
2021/08/17 05:00:58;;;;;;;20.10;6.10;;;;;;;23.41;47.92;99633.56;5099239;28;20241;-76
2021/08/17 05:03:23;;;;;;;16.38;6.22;;;;;;;23.64;47.57;99635.28;5093086;28;20042;-75
2021/08/17 05:05:49;;;;;;;16.73;6.00;;;;;;;23.84;47.52;99630.13;5100555;28;20023;-75
2021/08/17 05:08:14;;;;;;;10.00;5.35;;;;;;;24.28;46.40;99628.28;5085718;28;20045;-75
2021/08/17 05:10:40;;;;;;;13.15;5.20;;;;;;;24.63;45.83;99632.41;5098651;28;20081;-75
2021/08/17 05:13:06;;;;;;;13.88;5.53;;;;;;;24.70;45.53;99633.81;5095317;28;20034;-74
2021/08/17 05:15:32;;;;;;;16.48;6.88;;;;;;;24.89;45.06;99620.72;5088577;28;20036;-74
2021/08/17 05:17:58;;;;;;;12.65;5.35;;;;;;;25.09;45.77;99633.66;5093891;28;20378;-72
2021/08/17 05:20:24;;;;;;;8.55;4.57;;;;;;;25.35;45.20;99624.63;5083104;28;20028;-79
2021/08/17 05:22:50;;;;;;;9.75;5.32;;;;;;;25.63;45.00;99636.97;5089115;28;20044;-79
2021/08/17 05:25:16;;;;;;;9.38;4.82;;;;;;;26.11;43.83;99634.25;5081010;28;20033;-79
2021/08/17 05:27:42;;;;;;;7.70;5.07;;;;;;;26.31;44.09;99629.72;5087246;28;20091;-73
2021/08/17 05:30:08;;;;;;;8.05;4.97;;;;;;;26.59;42.38;99608.59;5097240;28;20218;-76
2021/08/17 05:32:33;;;;;;;12.85;4.60;;;;;;;27.21;41.48;99623.88;5093197;28;20043;-76
2021/08/17 05:34:59;;;;;;;12.40;5.00;;;;;;;27.53;40.37;99629.78;5092565;28;20020;-76
2021/08/17 05:37:24;;;;;;;10.02;5.18;;;;;;;27.95;39.59;99623.94;5090414;28;20326;-76
2021/08/17 05:39:50;;;;;;;12.25;4.82;;;;;;;28.25;38.63;99628.47;5093138;28;20058;-76
2021/08/17 05:42:16;;;;;;;14.15;4.82;;;;;;;28.53;38.30;99623.41;5082253;28;20052;-75
2021/08/17 05:44:43;;;;;;;15.60;4.70;;;;;;;28.39;38.77;99638.75;5072222;28;20032;-76
2021/08/17 05:47:09;;;;;;;12.48;4.72;;;;;;;28.32;38.82;99632.78;5098335;28;20053;-75
2021/08/17 05:49:38;;;;;;;7.80;4.75;;;;;;;28.27;38.86;99629.00;5086579;28;20052;-74
2021/08/17 05:52:09;;;;;;;10.23;5.20;;;;;;;28.38;38.69;99632.47;5094758;28;20055;-75
2021/08/17 05:54:35;;;;;;;10.50;4.82;;;;;;;28.60;38.11;99627.44;5089176;28;20221;-74
2021/08/17 05:57:01;;;;;;;12.98;5.25;;;;;;;28.90;37.82;99631.03;5092183;28;20107;-75
2021/08/17 05:59:27;;;;;;;12.80;5.25;;;;;;;29.01;37.34;99624.41;5080541;28;20020;-75
2021/08/17 06:01:58;;;;;;;10.02;4.78;;;;;;;29.21;36.97;99616.06;5087651;28;20028;-75
2021/08/17 06:04:23;;;;;;;10.50;4.95;;;;;;;29.36;36.41;99617.81;5089685;28;20046;-75
2021/08/17 06:06:49;;;;;;;12.80;6.57;;;;;;;29.63;36.31;99617.28;5081529;28;20107;-78
2021/08/17 06:09:16;;;;;;;10.57;5.95;;;;;;;29.57;36.17;99614.91;5082227;28;20103;-78
2021/08/17 06:11:43;;;;;;;11.60;5.75;;;;;;;29.74;36.04;99607.06;5095107;28;20374;-78
2021/08/17 06:14:08;;;;;;;7.95;5.20;;;;;;;29.41;37.42;99608.78;5086703;28;20113;-78
2021/08/17 06:16:34;;;;;;;10.82;5.60;;;;;;;29.84;36.83;99604.22;5096651;28;20039;-75
2021/08/17 06:19:00;;;;;;;12.68;5.82;;;;;;;29.99;36.30;99619.56;5098063;28;20038;-76
2021/08/17 06:21:26;;;;;;;7.88;5.07;;;;;;;29.45;36.74;99605.22;5094920;28;20036;-74
2021/08/17 06:23:51;;;;;;;9.52;5.60;;;;;;;28.80;38.44;99607.38;5099546;28;20436;-76
2021/08/17 06:26:17;;;;;;;12.48;6.03;;;;;;;29.08;37.86;99591.34;5097724;28;20020;-74
2021/08/17 06:28:44;;;;;;;14.57;5.50;;;;;;;29.95;36.12;99615.81;5096055;28;20032;-74
2021/08/17 06:31:12;;;;;;;11.13;5.57;;;;;;;30.62;35.26;99609.19;5100340;28;20039;-76
2021/08/17 06:33:38;;;;;;;10.55;4.82;;;;;;;29.90;36.33;99610.41;5090684;28;20229;-74
2021/08/17 06:36:04;;;;;;;22.90;4.97;;;;;;;29.50;36.72;99607.88;5092730;28;20085;-74
2021/08/17 06:38:29;;;;;;;6.72;4.18;;;;;;;29.22;37.67;99595.06;5100295;28;20035;-75
2021/08/17 06:40:55;;;;;;;7.13;4.78;;;;;;;29.52;36.77;99602.94;5091855;28;20036;-74
2021/08/17 06:43:20;;;;;;;9.40;4.28;;;;;;;29.77;37.07;99603.75;5093272;28;20051;-73
2021/08/17 06:45:46;;;;;;;7.10;4.38;;;;;;;28.96;37.94;99596.38;5071626;28;20251;-74
2021/08/17 06:48:11;;;;;;;11.43;4.00;;;;;;;28.41;39.57;99607.41;5091399;28;20036;-74
2021/08/17 06:50:36;;;;;;;8.13;4.25;;;;;;;28.60;38.68;99597.47;5073134;28;20012;-75
2021/08/17 06:53:02;;;;;;;8.45;4.40;;;;;;;29.43;37.36;99601.97;5092631;28;20043;-72
2021/08/17 06:55:28;;;;;;;8.00;4.63;;;;;;;29.72;36.55;99603.81;5090910;28;20074;-78
2021/08/17 06:57:53;;;;;;;5.82;4.50;;;;;;;29.60;36.46;99608.88;5085498;28;20028;-78
2021/08/17 07:00:18;;;;;;;5.95;4.40;;;;;;;29.39;36.30;99605.53;5090985;28;20031;-77
2021/08/17 07:02:44;;;;;;;6.85;4.35;;;;;;;29.47;36.31;99591.28;5087347;28;20051;-74
2021/08/17 07:05:10;;;;;;;11.00;4.13;;;;;;;29.81;35.56;99604.78;5089295;28;20054;-74
2021/08/17 07:07:35;;;;;;;9.35;4.15;;;;;;;30.54;33.83;99607.09;5090315;28;20055;-75
2021/08/17 07:10:01;;;;;;;11.07;4.50;;;;;;;30.72;32.97;99600.00;5086238;28;20216;-75
2021/08/17 07:12:27;;;;;;;8.02;4.00;;;;;;;31.26;32.00;99596.66;5088888;28;20214;-74
2021/08/17 07:14:52;;;;;;;11.98;5.03;;;;;;;31.40;31.35;99594.75;5089155;28;20035;-74
2021/08/17 07:17:18;;;;;;;8.27;5.03;;;;;;;31.68;30.62;99592.00;5070551;28;20029;-74
2021/08/17 07:19:43;;;;;;;6.80;4.57;;;;;;;32.13;29.61;99589.44;5092337;28;20036;-74
2021/08/17 07:22:09;;;;;;;12.95;5.22;;;;;;;32.59;29.46;99583.75;5074095;28;20039;-75
2021/08/17 07:24:34;;;;;;;8.90;4.45;;;;;;;32.91;28.94;99571.72;5088947;28;20130;-75
2021/08/17 07:27:00;;;;;;;9.90;5.22;;;;;;;32.39;29.61;99568.59;5086957;28;20056;-76
2021/08/17 07:29:26;;;;;;;10.95;5.25;;;;;;;32.02;30.06;99567.75;5088983;28;20032;-75
2021/08/17 07:31:51;;;;;;;14.68;5.82;;;;;;;31.68;30.51;99561.91;5069924;28;20284;-75
2021/08/17 07:34:16;;;;;;;7.95;4.68;;;;;;;32.22;30.08;99565.66;5088164;28;20257;-74
2021/08/17 07:36:42;;;;;;;9.73;4.93;;;;;;;31.28;31.61;99567.06;5090240;28;20054;-75
2021/08/17 07:39:12;;;;;;;8.30;5.20;;;;;;;31.40;30.95;99556.44;5085059;28;20077;-74
2021/08/17 07:41:38;;;;;;;7.82;5.25;;;;;;;31.81;30.48;99566.56;5087695;28;20063;-78
2021/08/17 07:44:04;;;;;;;8.13;4.60;;;;;;;32.64;29.86;99562.50;5086169;28;20048;-72
2021/08/17 07:46:30;;;;;;;15.93;4.50;;;;;;;33.22;28.89;99555.25;5087443;28;20028;-72
2021/08/17 07:48:55;;;;;;;11.35;5.00;;;;;;;33.73;27.27;99556.59;5088184;28;20237;-73
2021/08/17 07:51:22;;;;;;;10.70;4.55;;;;;;;34.14;26.31;99553.44;5086492;28;20016;-73
2021/08/17 07:53:48;;;;;;;13.55;4.63;;;;;;;34.10;26.47;99536.81;5089515;28;20040;-75
2021/08/17 07:56:13;;;;;;;12.30;5.18;;;;;;;34.36;26.07;99558.84;5089800;28;20410;-75
2021/08/17 07:58:39;;;;;;;8.23;4.70;;;;;;;34.02;27.34;99559.59;5087631;28;20041;-76
2021/08/17 08:01:04;;;;;;;10.73;4.63;;;;;;;33.37;28.52;99554.88;5073474;28;20024;-75
2021/08/17 08:03:30;;;;;;;12.75;5.57;;;;;;;33.41;27.67;99561.38;5089476;28;20035;-75
2021/08/17 08:05:56;;;;;;;10.27;4.88;;;;;;;32.30;29.59;99554.84;5086884;28;20221;-75
2021/08/17 08:08:21;;;;;;;10.45;5.68;;;;;;;32.17;29.32;99563.84;5086725;28;20036;-74
2021/08/17 08:10:47;;;;;;;7.63;4.75;;;;;;;32.18;29.53;99549.03;5089367;28;20032;-75
2021/08/17 08:13:12;;;;;;;8.23;4.82;;;;;;;32.60;28.34;99552.47;5086682;28;20033;-75
2021/08/17 08:15:38;;;;;;;9.57;4.30;;;;;;;33.06;27.71;99540.34;5088932;28;20236;-75
2021/08/17 08:18:03;;;;;;;7.47;4.53;;;;;;;32.99;27.29;99544.34;5088784;28;20474;-75
2021/08/17 08:20:30;;;;;;;8.30;4.18;;;;;;;33.09;26.57;99537.78;5087187;28;20365;-74
2021/08/17 08:22:55;;;;;;;7.38;4.63;;;;;;;33.58;26.56;99528.47;5067593;28;20028;-75
2021/08/17 08:25:21;;;;;;;8.85;4.15;;;;;;;34.21;24.90;99529.84;5084210;28;20031;-74
2021/08/17 08:27:46;;;;;;;8.57;4.57;;;;;;;34.50;24.60;99526.47;5085594;28;20044;-72
2021/08/17 08:30:13;;;;;;;11.25;5.00;;;;;;;34.27;25.12;99528.56;5085205;28;20203;-78
2021/08/17 08:32:39;;;;;;;8.25;4.80;;;;;;;33.07;26.77;99531.78;5087913;28;20035;-77
2021/08/17 08:35:07;;;;;;;7.15;4.75;;;;;;;32.99;26.37;99525.13;5083705;28;20024;-73
2021/08/17 08:37:32;;;;;;;7.38;3.97;;;;;;;33.57;25.84;99526.03;5087274;28;20117;-75
2021/08/17 08:39:58;;;;;;;8.88;4.07;;;;;;;32.74;27.13;99508.53;5087694;28;20988;-75
2021/08/17 08:42:24;;;;;;;9.80;4.55;;;;;;;32.48;27.86;99522.06;5068769;28;20402;-74
2021/08/17 08:44:53;;;;;;;17.92;4.10;;;;;;;32.36;28.17;99522.63;5085847;28;20091;-74
2021/08/17 08:47:20;;;;;;;7.55;3.72;;;;;;;31.90;28.45;99514.63;5087187;28;20099;-75
2021/08/17 08:49:49;;;;;;;7.35;3.47;;;;;;;32.24;27.37;99492.22;5085782;28;20039;-75
2021/08/17 08:52:15;;;;;;;5.40;4.03;;;;;;;33.10;25.68;99513.88;5085321;28;20032;-75
2021/08/17 08:54:41;;;;;;;5.88;3.80;;;;;;;32.95;26.24;99501.41;5069319;28;20218;-75
2021/08/17 08:57:07;;;;;;;11.73;4.03;;;;;;;33.43;25.54;99506.97;5085084;28;20047;-75
2021/08/17 08:59:33;;;;;;;9.50;3.75;;;;;;;34.12;24.41;99518.06;5083915;28;20047;-75
2021/08/17 09:02:10;;;;;;;8.05;3.92;;;;;;;34.13;23.70;99505.13;5087423;28;20044;-76
2021/08/17 09:04:36;;;;;;;9.65;3.88;;;;;;;33.91;23.11;99504.16;5086318;28;20162;-75
2021/08/17 09:07:02;;;;;;;5.38;3.45;;;;;;;33.61;24.06;99505.06;5086309;28;20055;-75
2021/08/17 09:09:29;;;;;;;7.90;3.63;;;;;;;33.25;23.70;99489.56;5068746;28;20066;-75
2021/08/17 09:11:56;;;;;;;8.20;3.47;;;;;;;32.71;24.20;99501.75;5087718;28;20034;-73
2021/08/17 09:14:26;;;;;;;7.10;3.83;;;;;;;32.96;24.48;99503.03;5089276;28;20042;-72
2021/08/17 09:16:58;;;;;;;9.65;3.88;;;;;;;33.09;24.42;99496.63;5083669;28;20024;-73
2021/08/17 09:19:31;;;;;;;16.00;4.43;;;;;;;33.63;24.44;99497.31;5086406;28;20029;-75
2021/08/17 09:22:02;;;;;;;21.00;4.90;;;;;;;32.92;24.84;99483.66;5084307;28;20060;-78
2021/08/17 09:24:34;;;;;;;8.57;4.10;;;;;;;32.90;24.29;99493.31;5086958;28;20020;-75
2021/08/17 09:27:10;;;;;;;11.98;4.03;;;;;;;33.36;24.39;99484.66;5085129;28;20144;-75
2021/08/17 09:29:38;;;;;;;13.13;3.50;;;;;;;33.73;23.67;99477.78;5068892;28;20028;-75
2021/08/17 09:32:18;;;;;;;4.25;3.15;;;;;;;33.91;23.09;99475.88;5085227;28;20383;-76
2021/08/17 09:34:51;;;;;;;6.75;3.42;;;;;;;33.30;24.34;99466.72;5085165;28;20042;-75
2021/08/17 09:37:17;;;;;;;10.30;3.60;;;;;;;32.82;24.30;99481.19;5085845;28;20310;-75
2021/08/17 09:39:47;;;;;;;9.13;3.95;;;;;;;32.10;25.70;99467.59;5085864;28;20037;-74
2021/08/17 09:42:21;;;;;;;6.78;3.58;;;;;;;31.92;25.07;99468.59;5068128;28;20325;-74
2021/08/17 09:44:48;;;;;;;;;;;;;;;31.95;26.26;99457.81;5069601;28;20111;-75
2021/08/17 09:47:14;;;;;;;7.18;3.22;;;;;;;31.94;25.97;99461.69;5084317;28;19917;-75
2021/08/17 09:49:40;;;;;;;9.82;4.07;;;;;;;31.62;26.69;99448.16;5085446;28;20086;-75
2021/08/17 09:52:14;;;;;;;7.03;3.83;;;;;;;31.35;26.84;99454.50;5069490;28;20444;-75
2021/08/17 09:54:43;;;;;;;8.05;3.95;;;;;;;31.63;27.27;99449.78;5068398;28;20065;-75
2021/08/17 09:57:10;;;;;;;10.20;4.05;;;;;;;32.06;26.21;99441.94;5083290;28;20032;-75
2021/08/17 09:59:40;;;;;;;11.05;4.63;;;;;;;32.20;26.36;99442.69;5086331;28;20039;-78
2021/08/17 10:02:07;;;;;;;10.10;4.10;;;;;;;32.30;25.87;99442.50;5071730;28;20036;-78
2021/08/17 10:04:35;;;;;;;7.75;4.28;;;;;;;32.35;26.21;99433.34;5086341;28;20267;-78
2021/08/17 10:07:04;;;;;;;9.15;4.35;;;;;;;32.59;25.33;99428.31;5084116;28;20383;-78
2021/08/17 10:09:30;;;;;;;9.63;4.20;;;;;;;32.49;25.11;99414.88;5087557;28;20035;-72
2021/08/17 10:11:56;;;;;;;8.63;5.18;;;;;;;32.56;25.59;99420.72;5068778;28;20321;-75
2021/08/17 10:14:21;;;;;;;10.75;5.78;;;;;;;32.42;25.96;99416.44;5086405;28;20039;-75
2021/08/17 10:16:47;;;;;;;9.00;4.85;;;;;;;32.40;25.47;99424.19;5085085;28;20040;-74
2021/08/17 10:19:20;;;;;;;11.10;7.40;;;;;;;32.10;25.39;99414.75;5066160;28;20020;-75
2021/08/17 10:21:47;;;;;;;11.02;6.90;;;;;;;31.85;25.58;99386.88;5084620;28;20032;-75
2021/08/17 10:24:24;;;;;;;9.00;5.80;;;;;;;32.19;25.32;99407.41;5085200;28;20027;-75
2021/08/17 10:26:50;;;;;;;11.07;4.90;;;;;;;32.10;24.97;99392.84;5085752;28;20034;-75
2021/08/17 10:29:27;;;;;;;10.73;6.45;;;;;;;32.12;25.70;99396.88;5084856;28;20385;-75
2021/08/17 10:31:53;;;;;;;13.02;5.70;;;;;;;32.03;25.36;99390.53;5083084;28;20032;-75
2021/08/17 10:34:34;;;;;;;11.30;6.05;;;;;;;31.69;26.08;99385.59;5085301;28;20195;-75
2021/08/17 10:37:19;;;;;;;12.30;8.27;;;;;;;31.85;25.00;99397.81;5083487;28;20039;-75
2021/08/17 10:39:45;;;;;;;13.20;8.63;;;;;;;31.72;23.84;99363.91;5084478;28;20028;-75
2021/08/17 10:42:25;;;;;;;11.32;8.18;;;;;;;31.84;23.82;99388.00;5083224;28;20205;-74
2021/08/17 10:44:51;;;;;;;14.52;9.75;;;;;;;31.71;23.94;99373.25;5068719;28;20087;-74
2021/08/17 10:47:30;;;;;;;17.15;11.80;;;;;;;31.62;22.43;99379.75;5087584;28;20039;-72
2021/08/17 10:49:56;;;;;;;23.45;11.60;;;;;;;31.80;23.76;99380.72;5087438;28;20024;-72
2021/08/17 10:52:38;;;;;;;18.25;11.95;;;;;;;31.70;23.06;99379.03;5087425;28;20070;-73
2021/08/17 10:55:40;;;;;;;15.45;10.32;;;;;;;31.77;24.22;99362.97;5068596;28;20465;-78
2021/08/17 10:58:08;;;;;;;13.68;7.80;;;;;;;31.80;25.70;99372.50;5007418;28;20351;-74
2021/08/17 11:00:55;;;;;;;17.48;7.45;;;;;;;31.67;25.90;99366.75;5061276;28;20028;-74
2021/08/17 11:03:42;;;;;;;13.60;6.80;;;;;;;31.71;28.37;99366.97;5086818;28;20048;-75
2021/08/17 11:06:08;;;;;;;13.60;7.82;;;;;;;31.69;28.01;99352.75;5085792;28;20031;-75
2021/08/17 11:08:39;;;;;;;11.65;7.13;;;;;;;31.61;27.61;99348.03;5089398;28;20564;-75
2021/08/17 11:11:20;;;;;;;11.82;7.28;;;;;;;31.71;28.20;99336.84;5089984;28;20039;-75
2021/08/17 11:14:09;;;;;;;12.57;7.50;;;;;;;31.90;26.98;99339.41;5086880;28;20048;-75
2021/08/17 11:16:40;;;;;;;12.32;7.30;;;;;;;31.94;27.96;99338.47;5087542;28;20035;-75
2021/08/17 11:19:05;;;;;;;11.50;6.65;;;;;;;31.93;26.74;99327.81;5090435;28;20178;-75
2021/08/17 11:21:44;;;;;;;10.13;6.68;;;;;;;32.08;27.52;99321.94;5069891;28;20033;-74
2021/08/17 11:24:14;;;;;;;11.45;6.95;;;;;;;31.79;27.27;99321.59;5090141;28;20042;-74
2021/08/17 11:26:43;;;;;;;9.70;6.82;;;;;;;31.91;27.13;99316.38;5068856;28;20074;-74
2021/08/17 11:29:14;;;;;;;11.43;7.35;;;;;;;32.02;28.58;99313.06;5070652;28;20293;-75